New England — V7HF3 — position and weather

sailwx.info

Track history (hours):
 
Tides and Currents Weather Stations Pressure Air Temp Water Temp Dewpoint Dewpoint Depression Visibility Wind Speed Wind Dir Waves Ship Positions

New England

Last reported at 2017-May-20 17:25 UTC. Time now 2017-May-24 07:58 UTC.
Position N 42°44' W 070°07'.

Length 183 m; draft 7.4 m.

Type: Ship. MMSI: 538002220.

Date/timePositionNaut miles runAvg speedWind from/ knotsBaromVisibWave heightAir tempDewpointWater temp
2017-May-20 17:25N 42°44' W 070°07'613.4
2017-May-20 17:00N 42°41' W 070°13'713.3
2017-May-20 16:30N 42°38' W 070°21'713.0
2017-May-20 16:00N 42°35' W 070°29'612.7
2017-May-20 15:30N 42°31' W 070°36'713.4
2017-May-20 15:00N 42°28' W 070°43'1212.5
2017-May-20 14:00N 42°20' W 070°57'5 9.9
2017-May-20 13:30N 42°22' W 071°03'2 3.6
2017-May-20 13:00N 42°23' W 071°01'0 0.1
2017-May-20 08:57N 42°24' W 071°01'0 0.0
2017-May-20 08:30N 42°24' W 071°01'0 0.0
2017-May-20 07:45N 42°24' W 071°01'0 0.0
2017-May-20 07:27N 42°24' W 071°01'0 0.0
2017-May-20 06:57N 42°24' W 071°01'0 0.0
2017-May-20 06:27N 42°24' W 071°01'0 0.0
2017-May-20 06:00N 42°24' W 071°01'0 0.0
2017-May-20 05:27N 42°24' W 071°01'0 0.0
2017-May-20 05:00N 42°24' W 071°01'0 0.0
2017-May-20 04:24N 42°24' W 071°01'0 0.0
2017-May-20 04:00N 42°24' W 071°01'0 0.0
2017-May-20 03:27N 42°24' W 071°01'0 0.0
2017-May-20 03:00N 42°24' W 071°01'0 0.0
2017-May-20 02:30N 42°24' W 071°01'0 0.0
2017-May-20 01:48N 42°24' W 071°01'0 0.0
2017-May-20 01:09N 42°24' W 071°01'0 0.0
2017-May-20 00:57N 42°24' W 071°01'0 0.0
2017-May-20 00:30N 42°24' W 071°01'0 0.0
2017-May-19 23:54N 42°24' W 071°01'0 0.0
2017-May-19 23:30N 42°24' W 071°01'0 0.0
2017-May-19 22:45N 42°24' W 071°01'0 0.0
2017-May-19 22:27N 42°24' W 071°01'0 0.0
2017-May-19 22:00N 42°24' W 071°01'0 0.0
2017-May-19 21:30N 42°24' W 071°01'0 0.0
2017-May-19 20:57N 42°24' W 071°01'0 0.0
2017-May-19 20:12N 42°24' W 071°01'0 0.0
2017-May-19 19:51N 42°24' W 071°01'0 0.0
2017-May-19 19:18N 42°24' W 071°01'0 0.0
2017-May-19 19:00N 42°24' W 071°01'0 0.0
2017-May-19 18:30N 42°24' W 071°01'0 0.0
2017-May-19 18:00N 42°24' W 071°01'0 0.0
2017-May-19 17:30N 42°24' W 071°01'0 0.0
2017-May-19 16:48N 42°24' W 071°01'0 0.0
2017-May-19 16:27N 42°24' W 071°01'0 0.0
2017-May-19 15:54N 42°24' W 071°01'0 0.0
2017-May-19 15:21N 42°24' W 071°01'0 0.0
2017-May-19 14:54N 42°24' W 071°01'0 0.0
2017-May-19 13:54N 42°24' W 071°01'0 0.0
2017-May-19 13:21N 42°24' W 071°01'0 0.1
2017-May-19 13:00N 42°24' W 071°01'1 2.0
2017-May-19 12:30N 42°23' W 071°02'1 2.7
2017-May-19 12:00N 42°22' W 071°03'4 7.6
2017-May-19 11:30N 42°20' W 070°58'0 0.3
2017-May-19 11:00N 42°20' W 070°58'0 0.0
2017-May-19 10:30N 42°20' W 070°58'0 0.1
2017-May-19 10:00N 42°20' W 070°58'0 0.0
2017-May-19 09:30N 42°20' W 070°58'0 0.1
2017-May-19 09:00N 42°20' W 070°58'0 0.0
2017-May-19 08:30N 42°20' W 070°58'0 0.1
2017-May-19 08:00N 42°20' W 070°58'0 0.1
2017-May-19 07:30N 42°20' W 070°58'0 0.0
2017-May-19 07:00N 42°20' W 070°58'0 0.0
2017-May-19 06:30N 42°20' W 070°58'0 0.1
2017-May-19 06:00N 42°21' W 070°58'0 0.0
2017-May-19 05:30N 42°20' W 070°58'0 0.1
2017-May-19 05:00N 42°20' W 070°58'0 0.3
2017-May-19 04:30N 42°20' W 070°58'0 0.1
2017-May-19 04:00N 42°20' W 070°58'0 0.1
2017-May-19 03:31N 42°20' W 070°58'0 0.1
2017-May-19 03:00N 42°20' W 070°58'0 0.1
2017-May-19 02:30N 42°20' W 070°58'0 0.0
2017-May-19 02:00N 42°20' W 070°58'0 0.0
2017-May-19 01:31N 42°20' W 070°58'0 0.0
2017-May-19 01:00N 42°20' W 070°58'0 0.1
2017-May-19 00:30N 42°20' W 070°58'0 0.0
2017-May-19 00:00N 42°20' W 070°58'0 0.0
2017-May-18 23:30N 42°20' W 070°58'0 0.1
2017-May-18 23:00N 42°20' W 070°58'0 0.0
2017-May-18 22:30N 42°20' W 070°58'0 0.0
2017-May-18 22:00N 42°20' W 070°58'0 0.1
2017-May-18 21:30N 42°20' W 070°58'0 0.1
2017-May-18 21:00N 42°20' W 070°58'0 0.0
2017-May-18 20:30N 42°20' W 070°58'0 0.1
2017-May-18 20:00N 42°20' W 070°58'0 0.0
2017-May-18 19:30N 42°20' W 070°58'0 0.1
2017-May-18 19:00N 42°20' W 070°58'0 0.0
2017-May-18 18:31N 42°20' W 070°58'0 0.2
2017-May-18 18:00N 42°20' W 070°58'1 1.0
2017-May-18 17:30N 42°20' W 070°57'4 7.1
2017-May-18 17:00N 42°23' W 070°54'510.0
2017-May-18 16:30N 42°25' W 070°48'611.2
2017-May-18 16:00N 42°28' W 070°42'612.3
2017-May-18 15:30N 42°32' W 070°35'612.6
2017-May-18 15:00N 42°35' W 070°28'1312.8
2017-May-18 14:00N 42°43' W 070°13'612.8
2017-May-18 13:30N 42°46' W 070°06'612.9
2017-May-18 13:00N 42°49' W 069°59'713.0
2017-May-18 12:30N 42°53' W 069°51'612.9
2017-May-18 12:00N 42°56' W 069°44'612.8
2017-May-18 11:31N 42°60' W 069°36'713.1
2017-May-18 11:00N 43°03' W 069°29'1313.9
2017-May-18 10:04N 43°10' W 069°14'513.9
2017-May-18 09:44N 43°13' W 069°08'314.0
2017-May-18 09:30N 43°15' W 069°05'713.8
2017-May-18 09:00N 43°18' W 068°57'713.7
2017-May-18 08:30N 43°22' W 068°49'713.5
2017-May-18 08:00N 43°26' W 068°41'713.6
2017-May-18 07:30N 43°29' W 068°33'713.5
2017-May-18 07:00N 43°33' W 068°25'  
2017-May-13 18:12N 42°43' W 070°11'313.2
2017-May-13 18:00N 42°41' W 070°14'612.9
2017-May-13 17:30N 42°38' W 070°21'612.8
2017-May-13 17:01N 42°35' W 070°29'612.8
2017-May-13 16:31N 42°31' W 070°36'612.7
2017-May-13 16:00N 42°28' W 070°43'612.5
2017-May-13 15:31N 42°24' W 070°50'510.6
2017-May-13 15:00N 42°21' W 070°56'5 9.5
2017-May-13 14:30N 42°22' W 071°02'3 0.5
2017-May-13 09:41N 42°24' W 071°01'0 0.0
2017-May-13 06:50N 42°24' W 071°01'0 0.0
2017-May-13 06:23N 42°24' W 071°01'0 0.0
2017-May-13 05:59N 42°24' W 071°01'0 0.0
2017-May-13 04:17N 42°24' W 071°01'0 0.0
2017-May-12 23:41N 42°24' W 071°01'0 0.0
2017-May-12 19:41N 42°24' W 071°01'0 0.0
2017-May-12 19:23N 42°24' W 071°01'0 0.0
2017-May-12 18:51N 42°24' W 071°01'0 0.0
2017-May-12 18:23N 42°24' W 071°01'0 0.0
2017-May-12 17:51N 42°24' W 071°01'0 0.0
2017-May-12 17:01N 42°24' W 071°01'0 0.0
2017-May-12 13:36N 42°24' W 071°01'0 0.0
2017-May-12 13:28N 42°24' W 071°01'0 0.0
2017-May-12 12:58N 42°24' W 071°01'0 0.0
2017-May-12 12:30N 42°24' W 071°01'0 0.0
2017-May-12 11:59N 42°24' W 071°01'0 0.0
2017-May-12 11:30N 42°24' W 071°01'0 0.0
2017-May-12 11:00N 42°24' W 071°01'0 0.0
2017-May-12 10:30N 42°24' W 071°01'0 0.0
2017-May-12 09:59N 42°24' W 071°01'1 2.3
2017-May-12 09:31N 42°23' W 071°02'2 3.0
2017-May-12 09:00N 42°22' W 071°03'5 9.2
2017-May-12 08:31N 42°20' W 070°57'611.3
2017-May-12 08:01N 42°24' W 070°51'510.4
2017-May-12 07:30N 42°27' W 070°45'0 0.6
2017-May-12 07:01N 42°27' W 070°45'1 2.1
2017-May-12 06:30N 42°26' W 070°45'1 2.0
2017-May-12 06:00N 42°25' W 070°45'0 0.2
2017-May-12 05:31N 42°25' W 070°45'0 0.9
2017-May-12 05:00N 42°26' W 070°45'4 7.7
2017-May-12 04:30N 42°29' W 070°41'713.7
2017-May-12 04:00N 42°33' W 070°34'713.9
2017-May-12 03:30N 42°38' W 070°27'510.4
2017-May-12 03:00N 42°43' W 070°27'713.8
2017-May-12 02:30N 42°48' W 070°32'713.9
2017-May-12 02:00N 42°54' W 070°38'713.3
2017-May-12 01:30N 43°00' W 070°41'1 0.0
2017-May-11 00:19N 43°01' W 070°41'0 0.1
2017-May-10 23:55N 43°01' W 070°41'0 0.1
2017-May-10 23:25N 43°01' W 070°41'0 0.1
2017-May-10 22:55N 43°01' W 070°41'0 0.1
2017-May-10 22:30N 43°01' W 070°41'1 1.7
2017-May-10 21:59N 43°01' W 070°40'510.1
2017-May-10 21:30N 43°01' W 070°33'713.3
2017-May-10 21:00N 43°02' W 070°24'713.7
2017-May-10 20:30N 43°03' W 070°15'  
Track history (hours):
 
Tides and Currents Weather Stations Pressure Air Temp Water Temp Dewpoint Dewpoint Depression Visibility Wind Speed Wind Dir Waves Ship Positions

New England

Last reported at 2017-May-20 17:25 UTC. Time now 2017-May-24 07:58 UTC.
Position N 42°44' W 070°07'.

Length 183 m; draft 7.4 m.

Type: Ship. MMSI: 538002220.

Date/timePositionNaut miles runAvg speedWind from/ knotsBaromVisibWave heightAir tempDewpointWater temp
2017-May-20 17:25N 42°44' W 070°07'613.4
2017-May-20 17:00N 42°41' W 070°13'713.3
2017-May-20 16:30N 42°38' W 070°21'713.0
2017-May-20 16:00N 42°35' W 070°29'612.7
2017-May-20 15:30N 42°31' W 070°36'713.4
2017-May-20 15:00N 42°28' W 070°43'1212.5
2017-May-20 14:00N 42°20' W 070°57'5 9.9
2017-May-20 13:30N 42°22' W 071°03'2 3.6
2017-May-20 13:00N 42°23' W 071°01'0 0.1
2017-May-20 08:57N 42°24' W 071°01'0 0.0
2017-May-20 08:30N 42°24' W 071°01'0 0.0
2017-May-20 07:45N 42°24' W 071°01'0 0.0
2017-May-20 07:27N 42°24' W 071°01'0 0.0
2017-May-20 06:57N 42°24' W 071°01'0 0.0
2017-May-20 06:27N 42°24' W 071°01'0 0.0
2017-May-20 06:00N 42°24' W 071°01'0 0.0
2017-May-20 05:27N 42°24' W 071°01'0 0.0
2017-May-20 05:00N 42°24' W 071°01'0 0.0
2017-May-20 04:24N 42°24' W 071°01'0 0.0
2017-May-20 04:00N 42°24' W 071°01'0 0.0
2017-May-20 03:27N 42°24' W 071°01'0 0.0
2017-May-20 03:00N 42°24' W 071°01'0 0.0
2017-May-20 02:30N 42°24' W 071°01'0 0.0
2017-May-20 01:48N 42°24' W 071°01'0 0.0
2017-May-20 01:09N 42°24' W 071°01'0 0.0
2017-May-20 00:57N 42°24' W 071°01'0 0.0
2017-May-20 00:30N 42°24' W 071°01'0 0.0
2017-May-19 23:54N 42°24' W 071°01'0 0.0
2017-May-19 23:30N 42°24' W 071°01'0 0.0
2017-May-19 22:45N 42°24' W 071°01'0 0.0
2017-May-19 22:27N 42°24' W 071°01'0 0.0
2017-May-19 22:00N 42°24' W 071°01'0 0.0
2017-May-19 21:30N 42°24' W 071°01'0 0.0
2017-May-19 20:57N 42°24' W 071°01'0 0.0
2017-May-19 20:12N 42°24' W 071°01'0 0.0
2017-May-19 19:51N 42°24' W 071°01'0 0.0
2017-May-19 19:18N 42°24' W 071°01'0 0.0
2017-May-19 19:00N 42°24' W 071°01'0 0.0
2017-May-19 18:30N 42°24' W 071°01'0 0.0
2017-May-19 18:00N 42°24' W 071°01'0 0.0
2017-May-19 17:30N 42°24' W 071°01'0 0.0
2017-May-19 16:48N 42°24' W 071°01'0 0.0
2017-May-19 16:27N 42°24' W 071°01'0 0.0
2017-May-19 15:54N 42°24' W 071°01'0 0.0
2017-May-19 15:21N 42°24' W 071°01'0 0.0
2017-May-19 14:54N 42°24' W 071°01'0 0.0
2017-May-19 13:54N 42°24' W 071°01'0 0.0
2017-May-19 13:21N 42°24' W 071°01'0 0.1
2017-May-19 13:00N 42°24' W 071°01'1 2.0
2017-May-19 12:30N 42°23' W 071°02'1 2.7
2017-May-19 12:00N 42°22' W 071°03'4 7.6
2017-May-19 11:30N 42°20' W 070°58'0 0.3
2017-May-19 11:00N 42°20' W 070°58'0 0.0
2017-May-19 10:30N 42°20' W 070°58'0 0.1
2017-May-19 10:00N 42°20' W 070°58'0 0.0
2017-May-19 09:30N 42°20' W 070°58'0 0.1
2017-May-19 09:00N 42°20' W 070°58'0 0.0
2017-May-19 08:30N 42°20' W 070°58'0 0.1
2017-May-19 08:00N 42°20' W 070°58'0 0.1
2017-May-19 07:30N 42°20' W 070°58'0 0.0
2017-May-19 07:00N 42°20' W 070°58'0 0.0
2017-May-19 06:30N 42°20' W 070°58'0 0.1
2017-May-19 06:00N 42°21' W 070°58'0 0.0
2017-May-19 05:30N 42°20' W 070°58'0 0.1
2017-May-19 05:00N 42°20' W 070°58'0 0.3
2017-May-19 04:30N 42°20' W 070°58'0 0.1
2017-May-19 04:00N 42°20' W 070°58'0 0.1
2017-May-19 03:31N 42°20' W 070°58'0 0.1
2017-May-19 03:00N 42°20' W 070°58'0 0.1
2017-May-19 02:30N 42°20' W 070°58'0 0.0
2017-May-19 02:00N 42°20' W 070°58'0 0.0
2017-May-19 01:31N 42°20' W 070°58'0 0.0
2017-May-19 01:00N 42°20' W 070°58'0 0.1
2017-May-19 00:30N 42°20' W 070°58'0 0.0
2017-May-19 00:00N 42°20' W 070°58'0 0.0
2017-May-18 23:30N 42°20' W 070°58'0 0.1
2017-May-18 23:00N 42°20' W 070°58'0 0.0
2017-May-18 22:30N 42°20' W 070°58'0 0.0
2017-May-18 22:00N 42°20' W 070°58'0 0.1
2017-May-18 21:30N 42°20' W 070°58'0 0.1
2017-May-18 21:00N 42°20' W 070°58'0 0.0
2017-May-18 20:30N 42°20' W 070°58'0 0.1
2017-May-18 20:00N 42°20' W 070°58'0 0.0
2017-May-18 19:30N 42°20' W 070°58'0 0.1
2017-May-18 19:00N 42°20' W 070°58'0 0.0
2017-May-18 18:31N 42°20' W 070°58'0 0.2
2017-May-18 18:00N 42°20' W 070°58'1 1.0
2017-May-18 17:30N 42°20' W 070°57'4 7.1
2017-May-18 17:00N 42°23' W 070°54'510.0
2017-May-18 16:30N 42°25' W 070°48'611.2
2017-May-18 16:00N 42°28' W 070°42'612.3
2017-May-18 15:30N 42°32' W 070°35'612.6
2017-May-18 15:00N 42°35' W 070°28'1312.8
2017-May-18 14:00N 42°43' W 070°13'612.8
2017-May-18 13:30N 42°46' W 070°06'612.9
2017-May-18 13:00N 42°49' W 069°59'713.0
2017-May-18 12:30N 42°53' W 069°51'612.9
2017-May-18 12:00N 42°56' W 069°44'612.8
2017-May-18 11:31N 42°60' W 069°36'713.1
2017-May-18 11:00N 43°03' W 069°29'1313.9
2017-May-18 10:04N 43°10' W 069°14'513.9
2017-May-18 09:44N 43°13' W 069°08'314.0
2017-May-18 09:30N 43°15' W 069°05'713.8
2017-May-18 09:00N 43°18' W 068°57'713.7
2017-May-18 08:30N 43°22' W 068°49'713.5
2017-May-18 08:00N 43°26' W 068°41'713.6
2017-May-18 07:30N 43°29' W 068°33'713.5
2017-May-18 07:00N 43°33' W 068°25'  
2017-May-13 18:12N 42°43' W 070°11'313.2
2017-May-13 18:00N 42°41' W 070°14'612.9
2017-May-13 17:30N 42°38' W 070°21'612.8
2017-May-13 17:01N 42°35' W 070°29'612.8
2017-May-13 16:31N 42°31' W 070°36'612.7
2017-May-13 16:00N 42°28' W 070°43'612.5
2017-May-13 15:31N 42°24' W 070°50'510.6
2017-May-13 15:00N 42°21' W 070°56'5 9.5
2017-May-13 14:30N 42°22' W 071°02'3 0.5
2017-May-13 09:41N 42°24' W 071°01'0 0.0
2017-May-13 06:50N 42°24' W 071°01'0 0.0
2017-May-13 06:23N 42°24' W 071°01'0 0.0
2017-May-13 05:59N 42°24' W 071°01'0 0.0
2017-May-13 04:17N 42°24' W 071°01'0 0.0
2017-May-12 23:41N 42°24' W 071°01'0 0.0
2017-May-12 19:41N 42°24' W 071°01'0 0.0
2017-May-12 19:23N 42°24' W 071°01'0 0.0
2017-May-12 18:51N 42°24' W 071°01'0 0.0
2017-May-12 18:23N 42°24' W 071°01'0 0.0
2017-May-12 17:51N 42°24' W 071°01'0 0.0
2017-May-12 17:01N 42°24' W 071°01'0 0.0
2017-May-12 13:36N 42°24' W 071°01'0 0.0
2017-May-12 13:28N 42°24' W 071°01'0 0.0
2017-May-12 12:58N 42°24' W 071°01'0 0.0
2017-May-12 12:30N 42°24' W 071°01'0 0.0
2017-May-12 11:59N 42°24' W 071°01'0 0.0
2017-May-12 11:30N 42°24' W 071°01'0 0.0
2017-May-12 11:00N 42°24' W 071°01'0 0.0
2017-May-12 10:30N 42°24' W 071°01'0 0.0
2017-May-12 09:59N 42°24' W 071°01'1 2.3
2017-May-12 09:31N 42°23' W 071°02'2 3.0
2017-May-12 09:00N 42°22' W 071°03'5 9.2
2017-May-12 08:31N 42°20' W 070°57'611.3
2017-May-12 08:01N 42°24' W 070°51'510.4
2017-May-12 07:30N 42°27' W 070°45'0 0.6
2017-May-12 07:01N 42°27' W 070°45'1 2.1
2017-May-12 06:30N 42°26' W 070°45'1 2.0
2017-May-12 06:00N 42°25' W 070°45'0 0.2
2017-May-12 05:31N 42°25' W 070°45'0 0.9
2017-May-12 05:00N 42°26' W 070°45'4 7.7
2017-May-12 04:30N 42°29' W 070°41'713.7
2017-May-12 04:00N 42°33' W 070°34'713.9
2017-May-12 03:30N 42°38' W 070°27'510.4
2017-May-12 03:00N 42°43' W 070°27'713.8
2017-May-12 02:30N 42°48' W 070°32'713.9
2017-May-12 02:00N 42°54' W 070°38'713.3
2017-May-12 01:30N 43°00' W 070°41'1 0.0
2017-May-11 00:19N 43°01' W 070°41'0 0.1
2017-May-10 23:55N 43°01' W 070°41'0 0.1
2017-May-10 23:25N 43°01' W 070°41'0 0.1
2017-May-10 22:55N 43°01' W 070°41'0 0.1
2017-May-10 22:30N 43°01' W 070°41'1 1.7
2017-May-10 21:59N 43°01' W 070°40'510.1
2017-May-10 21:30N 43°01' W 070°33'713.3
2017-May-10 21:00N 43°02' W 070°24'713.7
2017-May-10 20:30N 43°03' W 070°15'  

Dump ship's entire track history